createdAt,value
2023-01-12T00:01:38.343Z,41.20
2023-01-12T00:04:05.576Z,41.33
2023-01-12T00:06:32.321Z,41.24
2023-01-12T00:08:59.507Z,41.05
2023-01-12T00:11:26.331Z,41.55
2023-01-12T00:13:52.849Z,41.45
2023-01-12T00:16:41.247Z,41.43
2023-01-12T00:19:16.258Z,41.05
2023-01-12T00:21:59.458Z,41.31
2023-01-12T00:24:29.044Z,41.43
2023-01-12T00:26:57.137Z,41.45
2023-01-12T00:29:24.758Z,41.38
2023-01-12T00:31:53.270Z,41.55
2023-01-12T00:34:20.252Z,41.57
2023-01-12T00:36:47.631Z,41.50
2023-01-12T00:39:15.156Z,41.47
2023-01-12T00:42:01.243Z,41.41
2023-01-12T00:44:46.679Z,41.59
2023-01-12T00:47:14.377Z,41.60
2023-01-12T00:49:41.427Z,41.64
2023-01-12T00:52:13.282Z,41.54
2023-01-12T00:54:42.779Z,41.37
2023-01-12T00:57:09.925Z,41.59
2023-01-12T00:59:36.548Z,41.53
2023-01-12T01:02:04.386Z,41.78
2023-01-12T01:04:31.626Z,41.85
2023-01-12T01:06:58.185Z,41.56
2023-01-12T01:09:24.732Z,41.66
2023-01-12T01:11:51.358Z,41.65
2023-01-12T01:14:17.874Z,41.71
2023-01-12T01:16:44.535Z,41.57
2023-01-12T01:19:11.112Z,41.74
2023-01-12T01:21:38.176Z,41.59
2023-01-12T01:24:04.977Z,41.79
2023-01-12T01:26:31.817Z,41.63
2023-01-12T01:28:58.353Z,41.74
2023-01-12T01:31:26.548Z,41.83
2023-01-12T01:33:53.710Z,41.78
2023-01-12T01:36:21.700Z,41.83
2023-01-12T01:38:49.574Z,41.78
2023-01-12T01:41:25.228Z,41.98
2023-01-12T01:44:04.232Z,41.82
2023-01-12T01:46:57.204Z,41.93
2023-01-12T01:49:43.681Z,41.99
2023-01-12T01:52:12.274Z,41.86
2023-01-12T01:54:56.102Z,42.04
2023-01-12T01:57:26.510Z,42.00
2023-01-12T01:59:55.939Z,41.95
2023-01-12T02:02:25.671Z,42.02
2023-01-12T02:04:55.177Z,41.80
2023-01-12T02:07:21.922Z,41.77
2023-01-12T02:09:48.433Z,42.09
2023-01-12T02:12:33.899Z,42.05
2023-01-12T02:15:19.328Z,42.05
2023-01-12T02:18:40.849Z,42.07
2023-01-12T02:21:40.722Z,42.12
2023-01-12T02:24:55.525Z,42.11
2023-01-12T02:27:31.189Z,42.07
2023-01-12T02:30:37.105Z,42.14
2023-01-12T02:33:14.487Z,42.22
2023-01-12T02:36:26.027Z,42.21
2023-01-12T02:39:10.667Z,42.03
2023-01-12T02:42:05.329Z,42.18
2023-01-12T02:44:58.663Z,42.12
2023-01-12T02:47:55.028Z,42.39
2023-01-12T02:50:26.188Z,42.36
2023-01-12T02:52:59.652Z,42.38
2023-01-12T02:55:28.523Z,42.22
2023-01-12T02:57:57.344Z,42.12
2023-01-12T03:00:24.357Z,42.29
2023-01-12T03:02:51.231Z,42.17
2023-01-12T03:05:17.906Z,42.23
2023-01-12T03:07:49.090Z,42.39
2023-01-12T03:10:31.872Z,42.31
2023-01-12T03:13:01.617Z,42.22
2023-01-12T03:15:31.519Z,42.33
2023-01-12T03:18:02.103Z,42.20
2023-01-12T03:20:30.869Z,42.39
2023-01-12T03:23:18.959Z,42.24
2023-01-12T03:25:48.453Z,42.23
2023-01-12T03:28:19.478Z,42.37
2023-01-12T03:30:56.611Z,42.23
2023-01-12T03:33:24.725Z,42.27
2023-01-12T03:36:36.715Z,42.25
2023-01-12T03:39:41.517Z,42.26
2023-01-12T03:42:48.916Z,42.40
2023-01-12T03:45:45.329Z,42.45
2023-01-12T03:48:38.455Z,42.36
2023-01-12T03:51:12.814Z,42.25
2023-01-12T03:53:42.228Z,42.36
2023-01-12T03:56:11.576Z,42.37
2023-01-12T03:58:38.420Z,42.40
2023-01-12T04:01:05.910Z,42.37
2023-01-12T04:03:32.864Z,42.53
2023-01-12T04:05:59.411Z,42.15
2023-01-12T04:08:25.994Z,42.35
2023-01-12T04:10:52.509Z,42.38
2023-01-12T04:13:18.997Z,42.31
2023-01-12T04:15:47.250Z,42.37
2023-01-12T04:18:13.925Z,42.36
2023-01-12T04:20:40.575Z,42.46
2023-01-12T04:23:07.506Z,42.43
2023-01-12T04:25:34.444Z,42.28
2023-01-12T04:28:04.301Z,42.43
2023-01-12T04:30:32.543Z,42.35
2023-01-12T04:33:00.092Z,42.45
2023-01-12T04:35:27.632Z,42.41
2023-01-12T04:37:54.211Z,42.58
2023-01-12T04:40:21.031Z,42.36
2023-01-12T04:43:01.614Z,42.27
2023-01-12T04:45:29.039Z,42.38
2023-01-12T04:47:55.560Z,42.51
2023-01-12T04:50:22.213Z,42.54
2023-01-12T04:52:48.722Z,42.51
2023-01-12T04:55:15.269Z,42.41
2023-01-12T04:57:41.849Z,42.58
2023-01-12T05:00:09.139Z,42.64
2023-01-12T05:02:35.697Z,42.65
2023-01-12T05:05:02.569Z,42.62
2023-01-12T05:07:29.043Z,42.33
2023-01-12T05:10:14.043Z,42.56
2023-01-12T05:12:40.560Z,42.65
2023-01-12T05:15:07.596Z,42.51
2023-01-12T05:17:34.156Z,42.51
2023-01-12T05:20:00.994Z,42.51
2023-01-12T05:22:27.863Z,42.78
2023-01-12T05:24:54.418Z,42.79
2023-01-12T05:27:21.412Z,42.76
2023-01-12T05:29:47.901Z,42.80
2023-01-12T05:32:14.517Z,42.82
2023-01-12T05:34:41.694Z,42.83
2023-01-12T05:37:08.178Z,42.74
2023-01-12T05:39:34.744Z,42.80
2023-01-12T05:42:19.979Z,42.92
2023-01-12T05:44:46.699Z,42.89
2023-01-12T05:47:13.222Z,42.94
2023-01-12T05:49:39.715Z,42.86
2023-01-12T05:52:06.364Z,43.02
2023-01-12T05:54:32.968Z,42.88
2023-01-12T05:56:59.487Z,42.98
2023-01-12T05:59:25.969Z,43.10
2023-01-12T06:01:52.531Z,42.97
2023-01-12T06:04:19.177Z,42.86
2023-01-12T06:06:46.516Z,43.06
2023-01-12T06:09:13.494Z,43.03
2023-01-12T06:11:58.422Z,43.06
2023-01-12T06:14:25.263Z,42.91
2023-01-12T06:16:51.816Z,42.81
2023-01-12T06:19:18.319Z,43.08
2023-01-12T06:21:44.815Z,43.01
2023-01-12T06:24:11.363Z,42.86
2023-01-12T06:26:38.168Z,43.09
2023-01-12T06:29:07.051Z,43.23
2023-01-12T06:31:34.519Z,43.08
2023-01-12T06:34:01.143Z,43.02
2023-01-12T06:36:27.791Z,42.81
2023-01-12T06:38:54.306Z,43.04
2023-01-12T06:41:40.118Z,43.20
2023-01-12T06:44:06.633Z,43.36
2023-01-12T06:46:33.372Z,43.12
2023-01-12T06:49:00.045Z,43.17
2023-01-12T06:51:26.785Z,43.21
2023-01-12T06:53:54.096Z,43.24
2023-01-12T06:56:21.041Z,43.11
2023-01-12T06:58:47.636Z,43.16
2023-01-12T07:01:14.592Z,43.18
2023-01-12T07:03:41.345Z,43.13
2023-01-12T07:06:08.215Z,43.14
2023-01-12T07:08:35.263Z,43.22
2023-01-12T07:11:03.722Z,43.05
2023-01-12T07:13:31.744Z,43.14
2023-01-12T07:16:00.191Z,43.24
2023-01-12T07:18:27.845Z,43.13
2023-01-12T07:20:54.528Z,43.17
2023-01-12T07:23:21.105Z,43.05
2023-01-12T07:25:47.947Z,43.07
2023-01-12T07:28:14.928Z,43.24
2023-01-12T07:30:41.403Z,43.15
2023-01-12T07:33:14.177Z,43.25
2023-01-12T07:35:42.262Z,43.10
2023-01-12T07:38:09.530Z,43.27
2023-01-12T07:40:36.332Z,43.32
2023-01-12T07:43:08.339Z,43.26
2023-01-12T07:45:35.966Z,43.31
2023-01-12T07:48:02.596Z,43.35
2023-01-12T07:50:29.851Z,43.39
2023-01-12T07:53:01.250Z,43.31
2023-01-12T07:55:28.035Z,43.21
2023-01-12T07:57:55.238Z,43.49
2023-01-12T08:00:25.297Z,43.33
2023-01-12T08:02:53.981Z,43.51
2023-01-12T08:05:23.006Z,43.44
2023-01-12T08:07:49.887Z,43.44
2023-01-12T08:10:17.166Z,43.49
2023-01-12T08:12:43.711Z,43.34
2023-01-12T08:15:14.022Z,43.57
2023-01-12T08:18:06.153Z,45.20
2023-01-12T08:20:36.134Z,44.64
2023-01-12T08:23:21.848Z,45.57
2023-01-12T08:25:56.319Z,46.19
2023-01-12T08:28:28.472Z,45.99
2023-01-12T08:30:55.282Z,45.91
2023-01-12T08:33:22.169Z,45.74
2023-01-12T08:35:49.550Z,45.40
2023-01-12T08:38:16.282Z,45.05
2023-01-12T08:41:01.384Z,45.88
2023-01-12T08:43:46.630Z,45.31
2023-01-12T08:46:13.560Z,46.01
2023-01-12T08:48:40.459Z,45.36
2023-01-12T08:51:08.094Z,45.68
2023-01-12T08:53:35.436Z,45.70
2023-01-12T08:56:02.298Z,45.16
2023-01-12T08:58:28.768Z,45.52
2023-01-12T09:00:55.461Z,45.54
2023-01-12T09:03:22.303Z,45.46
2023-01-12T09:05:49.030Z,45.29
2023-01-12T09:08:15.653Z,45.47
2023-01-12T09:10:42.162Z,45.19
2023-01-12T09:13:10.084Z,45.22
2023-01-12T09:15:36.689Z,45.31
2023-01-12T09:18:03.235Z,45.24
2023-01-12T09:20:29.796Z,45.00
2023-01-12T09:22:56.377Z,44.98
2023-01-12T09:25:23.077Z,45.15
2023-01-12T09:27:49.709Z,45.15
2023-01-12T09:30:16.375Z,45.02
2023-01-12T09:32:42.896Z,45.44
2023-01-12T09:35:09.900Z,45.17
2023-01-12T09:37:37.006Z,44.97
2023-01-12T09:40:04.403Z,45.13
2023-01-12T09:42:49.810Z,45.31
2023-01-12T09:45:41.204Z,44.95
2023-01-12T09:48:13.886Z,45.08
2023-01-12T09:51:14.058Z,45.02
2023-01-12T09:53:41.642Z,44.82
2023-01-12T09:56:08.234Z,45.09
2023-01-12T09:59:03.502Z,45.07
2023-01-12T10:01:30.435Z,44.95
2023-01-12T10:03:59.859Z,44.97
2023-01-12T10:06:27.043Z,45.32
2023-01-12T10:08:58.308Z,45.27
2023-01-12T10:11:24.953Z,45.07
2023-01-12T10:14:21.795Z,45.27
2023-01-12T10:17:19.018Z,45.32
2023-01-12T10:20:00.522Z,45.44
2023-01-12T10:22:39.886Z,45.30
2023-01-12T10:25:19.105Z,45.13
2023-01-12T10:27:48.723Z,45.00
2023-01-12T10:30:20.599Z,44.84
2023-01-12T10:32:47.371Z,45.03
2023-01-12T10:35:21.610Z,45.00
2023-01-12T10:37:51.275Z,44.87
2023-01-12T10:40:25.887Z,44.86
2023-01-12T10:43:20.082Z,44.89
2023-01-12T10:46:11.603Z,44.85
2023-01-12T10:48:40.202Z,44.61
2023-01-12T10:51:18.197Z,44.60
2023-01-12T10:53:49.052Z,44.67
2023-01-12T10:56:37.373Z,44.61
2023-01-12T10:59:12.270Z,44.76
2023-01-12T11:01:52.445Z,44.67
2023-01-12T11:04:24.492Z,44.59
2023-01-12T11:07:10.861Z,44.65
2023-01-12T11:09:37.917Z,44.48
2023-01-12T11:12:19.535Z,44.51
2023-01-12T11:15:00.303Z,44.46
2023-01-12T11:20:04.873Z,44.43
2023-01-12T11:22:37.301Z,44.55
2023-01-12T11:25:13.348Z,44.64
2023-01-12T11:27:52.904Z,44.50
2023-01-12T11:30:34.732Z,44.39
2023-01-12T11:33:13.341Z,44.38
2023-01-12T11:35:57.710Z,44.31
2023-01-12T11:38:59.565Z,44.50
2023-01-12T11:41:37.093Z,44.26
2023-01-12T11:44:30.747Z,44.33
2023-01-12T11:47:05.225Z,44.27
2023-01-12T11:49:55.758Z,44.33
2023-01-12T11:52:25.257Z,44.37
2023-01-12T11:54:51.889Z,44.28
2023-01-12T11:57:24.464Z,44.22
2023-01-12T12:00:10.019Z,44.28
2023-01-12T12:02:51.104Z,44.21
2023-01-12T12:05:20.393Z,44.23
2023-01-12T12:08:12.338Z,44.25
2023-01-12T12:10:44.630Z,44.36
2023-01-12T12:13:29.839Z,44.27
2023-01-12T12:16:08.582Z,44.37
2023-01-12T12:18:53.156Z,44.26
2023-01-12T12:21:35.299Z,44.37
2023-01-12T12:24:07.989Z,44.36
2023-01-12T12:26:45.026Z,44.37
2023-01-12T12:29:48.946Z,44.48
2023-01-12T12:32:38.206Z,44.41
2023-01-12T12:35:14.600Z,44.63
2023-01-12T12:37:57.073Z,44.48
2023-01-12T12:41:07.562Z,44.50
2023-01-12T12:43:56.185Z,44.57
2023-01-12T12:46:44.437Z,44.56
2023-01-12T12:49:27.708Z,44.52
2023-01-12T12:51:57.453Z,44.72
2023-01-12T12:54:26.626Z,44.56
2023-01-12T12:56:53.813Z,44.58
2023-01-12T12:59:32.381Z,44.61
2023-01-12T13:02:01.096Z,44.49
2023-01-12T13:04:42.784Z,44.47
2023-01-12T13:07:21.253Z,44.61
2023-01-12T13:09:50.071Z,44.45
2023-01-12T13:12:34.043Z,44.57
2023-01-12T13:15:22.824Z,44.47
2023-01-12T13:17:52.788Z,44.52
2023-01-12T13:20:25.715Z,44.65
2023-01-12T13:22:53.237Z,44.54
2023-01-12T13:25:19.760Z,44.62
2023-01-12T13:28:01.319Z,44.52
2023-01-12T13:30:30.717Z,44.60
2023-01-12T13:33:15.682Z,44.66
2023-01-12T13:35:45.822Z,44.81
2023-01-12T13:38:34.075Z,44.62
2023-01-12T13:41:47.650Z,44.65
2023-01-12T13:44:22.098Z,44.42
2023-01-12T13:46:51.622Z,44.67
2023-01-12T13:49:29.399Z,44.58
2023-01-12T13:52:09.837Z,44.62
2023-01-12T13:54:49.324Z,44.51
2023-01-12T13:57:21.628Z,44.91
2023-01-12T14:00:08.765Z,44.68
2023-01-12T14:02:36.608Z,45.02
2023-01-12T14:05:14.248Z,44.86
2023-01-12T14:08:11.084Z,44.78
2023-01-12T14:10:45.598Z,44.73
2023-01-12T14:13:21.508Z,44.63
2023-01-12T14:16:06.840Z,44.74
2023-01-12T14:18:45.276Z,44.67
2023-01-12T14:21:29.129Z,44.59
2023-01-12T14:24:16.429Z,44.66
2023-01-12T14:26:43.038Z,44.71
2023-01-12T14:29:11.539Z,44.50
2023-01-12T14:31:43.486Z,44.78
2023-01-12T14:34:35.848Z,44.62
2023-01-12T14:37:06.012Z,44.61
2023-01-12T14:39:41.267Z,44.61
2023-01-12T14:42:35.988Z,44.64
2023-01-12T14:45:21.740Z,44.47
2023-01-12T14:47:48.561Z,44.62
2023-01-12T14:50:21.124Z,44.60
2023-01-12T14:52:48.874Z,44.57
2023-01-12T14:55:39.617Z,44.61
2023-01-12T14:58:07.366Z,44.42
2023-01-12T15:00:38.253Z,44.51
2023-01-12T15:03:18.606Z,44.56
2023-01-12T15:05:51.356Z,44.54
2023-01-12T15:08:27.989Z,44.45
2023-01-12T15:11:07.372Z,44.59
2023-01-12T15:13:35.513Z,44.53
2023-01-12T15:16:22.737Z,44.65
2023-01-12T15:19:09.138Z,44.50
2023-01-12T15:21:56.005Z,44.47
2023-01-12T15:24:48.784Z,44.59
2023-01-12T15:27:23.553Z,44.48
2023-01-12T15:29:50.360Z,44.48
2023-01-12T15:32:31.914Z,44.47
2023-01-12T15:35:16.360Z,44.47
2023-01-12T15:37:43.146Z,44.51
2023-01-12T15:40:13.819Z,44.52
2023-01-12T15:42:40.461Z,44.51
2023-01-12T15:45:40.522Z,44.56
2023-01-12T15:48:07.689Z,44.61
2023-01-12T15:50:37.902Z,44.79
2023-01-12T15:53:11.467Z,44.87
2023-01-12T15:55:39.445Z,44.80
2023-01-12T15:58:06.017Z,44.77
2023-01-12T16:00:32.663Z,44.86
2023-01-12T16:02:59.175Z,45.05
2023-01-12T16:05:29.295Z,44.97
2023-01-12T16:07:55.943Z,44.90
2023-01-12T16:10:22.517Z,45.08
2023-01-12T16:12:49.274Z,45.05
2023-01-12T16:15:24.603Z,45.05
2023-01-12T16:17:51.884Z,45.11
2023-01-12T16:20:20.236Z,44.97
2023-01-12T16:22:47.381Z,45.07
2023-01-12T16:25:14.547Z,45.25
2023-01-12T16:27:41.390Z,45.20
2023-01-12T16:30:12.828Z,45.21
2023-01-12T16:32:39.363Z,45.26
2023-01-12T16:35:05.930Z,45.36
2023-01-12T16:37:33.390Z,45.24
2023-01-12T16:40:00.839Z,45.35
2023-01-12T16:42:27.737Z,45.38
2023-01-12T16:44:54.428Z,45.51
2023-01-12T16:47:21.728Z,45.42
2023-01-12T16:49:50.651Z,45.61
2023-01-12T16:52:19.863Z,45.41
2023-01-12T16:54:46.541Z,45.51
2023-01-12T16:57:15.755Z,45.39
2023-01-12T16:59:43.009Z,45.40
2023-01-12T17:02:17.153Z,45.26
2023-01-12T17:04:45.039Z,45.24
2023-01-12T17:07:11.986Z,45.33
2023-01-12T17:09:39.899Z,45.33
2023-01-12T17:12:07.671Z,45.45
2023-01-12T17:14:35.157Z,45.22
2023-01-12T17:17:08.661Z,45.23
2023-01-12T17:19:37.490Z,45.31
2023-01-12T17:22:06.812Z,45.22
2023-01-12T17:24:34.420Z,45.23
2023-01-12T17:27:02.576Z,45.18
2023-01-12T17:29:29.358Z,45.49
2023-01-12T17:32:03.451Z,45.31
2023-01-12T17:34:36.720Z,45.35
2023-01-12T17:37:04.257Z,45.41
2023-01-12T17:39:31.061Z,45.31
2023-01-12T17:42:15.972Z,45.36
2023-01-12T17:44:42.909Z,45.56
2023-01-12T17:47:10.197Z,45.49
2023-01-12T17:49:36.967Z,45.65
2023-01-12T17:52:04.257Z,45.70
2023-01-12T17:54:30.779Z,45.25
2023-01-12T17:56:57.579Z,45.52
2023-01-12T17:59:24.526Z,45.41
2023-01-12T18:01:51.816Z,45.27
2023-01-12T18:04:18.477Z,45.51
2023-01-12T18:06:46.221Z,45.35
2023-01-12T18:09:16.293Z,45.51
2023-01-12T18:11:42.945Z,45.55
2023-01-12T18:14:10.280Z,45.57
2023-01-12T18:16:37.357Z,45.36
2023-01-12T18:19:06.110Z,45.39
2023-01-12T18:21:33.640Z,45.39
2023-01-12T18:24:01.023Z,45.53
2023-01-12T18:26:30.756Z,45.48
2023-01-12T18:28:58.747Z,45.34
2023-01-12T18:31:28.726Z,45.33
2023-01-12T18:34:16.755Z,45.35
2023-01-12T18:36:43.618Z,45.40
2023-01-12T18:39:21.982Z,45.32
2023-01-12T18:42:08.574Z,45.34
2023-01-12T18:44:35.640Z,45.29
2023-01-12T18:47:21.076Z,45.35
2023-01-12T18:49:50.355Z,45.60
2023-01-12T18:52:36.541Z,45.44
2023-01-12T18:55:04.640Z,45.26
2023-01-12T18:57:32.549Z,45.33
2023-01-12T19:00:17.951Z,45.29
2023-01-12T19:02:45.055Z,44.95
2023-01-12T19:05:20.329Z,45.29
2023-01-12T19:07:52.836Z,45.30
2023-01-12T19:10:19.488Z,45.11
2023-01-12T19:15:31.811Z,44.97
2023-01-12T19:17:58.597Z,45.06
2023-01-12T19:20:31.825Z,44.96
2023-01-12T19:23:30.675Z,45.33
2023-01-12T19:26:20.274Z,45.28
2023-01-12T19:28:46.852Z,45.07
2023-01-12T19:31:15.738Z,45.12
2023-01-12T19:33:43.171Z,45.10
2023-01-12T19:36:14.174Z,45.40
2023-01-12T19:38:43.394Z,45.07
2023-01-12T19:41:13.141Z,45.23
2023-01-12T19:43:45.089Z,45.29
2023-01-12T19:46:15.182Z,45.45
2023-01-12T19:48:41.807Z,45.57
2023-01-12T19:51:11.060Z,45.42
2023-01-12T19:53:38.935Z,45.24
2023-01-12T19:56:12.181Z,45.26
2023-01-12T19:58:39.488Z,45.12
2023-01-12T20:01:07.189Z,45.21
2023-01-12T20:03:34.840Z,45.18
2023-01-12T20:06:06.103Z,45.24
2023-01-12T20:08:32.955Z,45.15
2023-01-12T20:11:03.269Z,45.19
2023-01-12T20:13:32.488Z,45.24
2023-01-12T20:15:59.120Z,45.11
2023-01-12T20:18:25.657Z,45.26
2023-01-12T20:20:53.478Z,45.15
2023-01-12T20:23:20.356Z,45.08
2023-01-12T20:25:47.072Z,45.29
2023-01-12T20:28:13.961Z,45.19
2023-01-12T20:30:42.342Z,45.10
2023-01-12T20:33:11.697Z,45.32
2023-01-12T20:35:44.682Z,45.43
2023-01-12T20:40:43.876Z,45.21
2023-01-12T20:43:10.541Z,45.24
2023-01-12T20:45:37.420Z,45.26
2023-01-12T20:48:04.536Z,45.26
2023-01-12T20:50:31.259Z,45.36
2023-01-12T20:52:58.314Z,45.28
2023-01-12T20:55:25.440Z,45.22
2023-01-12T20:57:52.248Z,45.26
2023-01-12T21:00:19.144Z,45.18
2023-01-12T21:02:45.803Z,45.21
2023-01-12T21:05:12.436Z,45.25
2023-01-12T21:07:39.001Z,45.08
2023-01-12T21:10:07.349Z,45.22
2023-01-12T21:12:34.451Z,45.15
2023-01-12T21:15:01.158Z,45.27
2023-01-12T21:17:27.684Z,45.19
2023-01-12T21:19:54.419Z,45.31
2023-01-12T21:22:21.067Z,45.11
2023-01-12T21:24:47.685Z,44.99
2023-01-12T21:27:14.222Z,45.02
2023-01-12T21:29:40.737Z,45.14
2023-01-12T21:32:07.382Z,45.10
2023-01-12T21:34:33.945Z,45.03
2023-01-12T21:37:00.566Z,45.16
2023-01-12T21:39:27.223Z,45.05
2023-01-12T21:42:12.562Z,44.86
2023-01-12T21:44:39.263Z,45.09
2023-01-12T21:47:05.923Z,44.98
2023-01-12T21:49:32.764Z,44.85
2023-01-12T21:52:00.300Z,44.93
2023-01-12T21:54:26.871Z,45.02
2023-01-12T21:56:53.580Z,44.87
2023-01-12T21:59:20.228Z,44.75
2023-01-12T22:01:46.936Z,44.72
2023-01-12T22:04:13.954Z,44.73
2023-01-12T22:06:40.522Z,44.67
2023-01-12T22:09:07.017Z,44.82
2023-01-12T22:11:33.647Z,44.68
2023-01-12T22:14:00.212Z,44.68
2023-01-12T22:16:26.949Z,44.93
2023-01-12T22:18:53.622Z,44.61
2023-01-12T22:21:21.180Z,44.27
2023-01-12T22:23:48.142Z,44.60
2023-01-12T22:26:16.269Z,44.70
2023-01-12T22:28:45.013Z,44.44
2023-01-12T22:31:16.052Z,44.46
2023-01-12T22:33:47.461Z,44.51
2023-01-12T22:36:14.608Z,44.69
2023-01-12T22:38:42.130Z,44.38
2023-01-12T22:41:11.308Z,44.38
2023-01-12T22:43:41.248Z,44.43
2023-01-12T22:46:23.547Z,44.41
2023-01-12T22:48:52.444Z,44.35
2023-01-12T22:51:20.861Z,44.27
2023-01-12T22:53:47.832Z,44.38
2023-01-12T22:56:14.576Z,44.21
2023-01-12T22:58:46.518Z,44.10
2023-01-12T23:01:13.334Z,44.16
2023-01-12T23:03:39.965Z,43.88
2023-01-12T23:06:10.394Z,44.03
2023-01-12T23:08:36.925Z,44.10
2023-01-12T23:11:15.392Z,44.13
2023-01-12T23:13:43.272Z,43.80
2023-01-12T23:16:12.218Z,43.85
2023-01-12T23:18:40.386Z,43.85
2023-01-12T23:21:14.168Z,43.78
2023-01-12T23:23:43.504Z,43.80
2023-01-12T23:26:12.884Z,43.75
2023-01-12T23:28:41.508Z,43.72
2023-01-12T23:31:13.828Z,43.65
2023-01-12T23:33:43.211Z,43.59
2023-01-12T23:36:13.549Z,43.46
2023-01-12T23:38:40.193Z,43.52
2023-01-12T23:41:26.608Z,43.66
2023-01-12T23:43:56.197Z,43.62
2023-01-12T23:46:23.868Z,43.53
2023-01-12T23:48:52.243Z,43.52
2023-01-12T23:51:18.820Z,43.47
2023-01-12T23:53:45.582Z,43.37
2023-01-12T23:56:15.023Z,43.25
2023-01-12T23:58:42.420Z,43.35
